sensor_id;sensor_type;location;lat;lon;timestamp;pressure;altitude;pressure_sealevel;temperature;humidity
4705;BME280;2366;51.332;6.610;2023-05-10T00:01:39;100675.63;;;17.44;96.86
4705;BME280;2366;51.332;6.610;2023-05-10T00:04:05;100672.22;;;17.42;96.60
4705;BME280;2366;51.332;6.610;2023-05-10T00:06:31;100667.84;;;17.31;96.78
4705;BME280;2366;51.332;6.610;2023-05-10T00:08:56;100672.63;;;17.18;96.78
4705;BME280;2366;51.332;6.610;2023-05-10T00:11:22;100670.50;;;17.21;97.16
4705;BME280;2366;51.332;6.610;2023-05-10T00:13:47;100667.53;;;17.15;96.28
4705;BME280;2366;51.332;6.610;2023-05-10T00:16:13;100673.41;;;17.09;96.36
4705;BME280;2366;51.332;6.610;2023-05-10T00:18:39;100677.38;;;17.14;96.61
4705;BME280;2366;51.332;6.610;2023-05-10T00:21:05;100668.66;;;17.12;95.89
4705;BME280;2366;51.332;6.610;2023-05-10T00:23:31;100670.63;;;17.10;96.62
4705;BME280;2366;51.332;6.610;2023-05-10T00:25:57;100670.63;;;17.10;96.58
4705;BME280;2366;51.332;6.610;2023-05-10T00:28:22;100673.28;;;17.10;96.39
4705;BME280;2366;51.332;6.610;2023-05-10T00:30:48;100671.31;;;17.12;96.64
4705;BME280;2366;51.332;6.610;2023-05-10T00:33:13;100672.03;;;17.04;96.02
4705;BME280;2366;51.332;6.610;2023-05-10T00:35:38;100672.97;;;16.94;95.31
4705;BME280;2366;51.332;6.610;2023-05-10T00:38:04;100674.00;;;17.02;96.34
4705;BME280;2366;51.332;6.610;2023-05-10T00:40:29;100680.19;;;17.03;95.57
4705;BME280;2366;51.332;6.610;2023-05-10T00:42:56;100673.56;;;17.07;96.26
4705;BME280;2366;51.332;6.610;2023-05-10T00:45:22;100671.44;;;17.11;95.91
4705;BME280;2366;51.332;6.610;2023-05-10T00:47:47;100675.00;;;17.11;95.83
4705;BME280;2366;51.332;6.610;2023-05-10T00:50:14;100668.34;;;17.15;95.65
4705;BME280;2366;51.332;6.610;2023-05-10T00:52:39;100674.53;;;17.06;95.13
4705;BME280;2366;51.332;6.610;2023-05-10T00:55:06;100686.25;;;17.05;95.21
4705;BME280;2366;51.332;6.610;2023-05-10T00:57:32;100679.66;;;17.09;95.10
4705;BME280;2366;51.332;6.610;2023-05-10T00:59:57;100685.84;;;17.10;95.52
4705;BME280;2366;51.332;6.610;2023-05-10T01:02:24;100684.72;;;17.12;96.03
4705;BME280;2366;51.332;6.610;2023-05-10T01:04:50;100683.47;;;17.16;95.96
4705;BME280;2366;51.332;6.610;2023-05-10T01:07:15;100686.84;;;17.18;95.47
4705;BME280;2366;51.332;6.610;2023-05-10T01:09:40;100683.28;;;17.08;94.18
4705;BME280;2366;51.332;6.610;2023-05-10T01:12:06;100681.31;;;17.00;93.93
4705;BME280;2366;51.332;6.610;2023-05-10T01:14:32;100681.00;;;16.94;93.99
4705;BME280;2366;51.332;6.610;2023-05-10T01:16:59;100680.69;;;16.87;94.72
4705;BME280;2366;51.332;6.610;2023-05-10T01:19:26;100678.16;;;16.86;94.32
4705;BME280;2366;51.332;6.610;2023-05-10T01:30:33;100684.88;;;16.80;94.39
4705;BME280;2366;51.332;6.610;2023-05-10T01:33:20;100682.09;;;16.81;94.37
4705;BME280;2366;51.332;6.610;2023-05-10T01:36:13;100679.00;;;16.86;93.96
4705;BME280;2366;51.332;6.610;2023-05-10T01:38:49;100683.09;;;16.90;94.65
4705;BME280;2366;51.332;6.610;2023-05-10T01:41:36;100687.75;;;16.98;94.90
4705;BME280;2366;51.332;6.610;2023-05-10T01:44:18;100686.94;;;16.97;93.75
4705;BME280;2366;51.332;6.610;2023-05-10T01:46:50;100684.13;;;16.99;94.70
4705;BME280;2366;51.332;6.610;2023-05-10T01:49:29;100681.56;;;16.97;93.77
4705;BME280;2366;51.332;6.610;2023-05-10T01:52:00;100685.25;;;16.96;94.01
4705;BME280;2366;51.332;6.610;2023-05-10T01:54:29;100683.28;;;16.98;94.65
4705;BME280;2366;51.332;6.610;2023-05-10T01:57:00;100692.03;;;17.00;94.30
4705;BME280;2366;51.332;6.610;2023-05-10T01:59:34;100685.25;;;17.06;94.86
4705;BME280;2366;51.332;6.610;2023-05-10T02:02:08;100685.13;;;17.08;93.59
4705;BME280;2366;51.332;6.610;2023-05-10T02:04:38;100683.59;;;17.05;94.28
4705;BME280;2366;51.332;6.610;2023-05-10T02:07:05;100688.09;;;17.04;93.89
4705;BME280;2366;51.332;6.610;2023-05-10T02:09:33;100690.63;;;17.06;93.85
4705;BME280;2366;51.332;6.610;2023-05-10T02:12:01;100696.00;;;17.16;94.11
4705;BME280;2366;51.332;6.610;2023-05-10T02:14:29;100693.19;;;17.17;93.97
4705;BME280;2366;51.332;6.610;2023-05-10T02:16:56;100704.59;;;17.19;94.10
4705;BME280;2366;51.332;6.610;2023-05-10T02:19:24;100698.28;;;17.20;94.70
4705;BME280;2366;51.332;6.610;2023-05-10T02:21:51;100693.88;;;17.19;94.09
4705;BME280;2366;51.332;6.610;2023-05-10T02:24:17;100695.47;;;17.22;94.25
4705;BME280;2366;51.332;6.610;2023-05-10T02:26:44;100690.38;;;17.19;93.67
4705;BME280;2366;51.332;6.610;2023-05-10T02:29:10;100700.13;;;17.20;94.52
4705;BME280;2366;51.332;6.610;2023-05-10T02:31:38;100703.03;;;17.07;93.40
4705;BME280;2366;51.332;6.610;2023-05-10T02:34:04;100706.44;;;17.09;93.84
4705;BME280;2366;51.332;6.610;2023-05-10T02:36:32;100704.47;;;17.11;93.80
4705;BME280;2366;51.332;6.610;2023-05-10T02:38:59;100704.72;;;17.08;93.71
4705;BME280;2366;51.332;6.610;2023-05-10T02:41:27;100704.88;;;17.16;94.44
4705;BME280;2366;51.332;6.610;2023-05-10T02:43:57;100705.00;;;17.15;93.51
4705;BME280;2366;51.332;6.610;2023-05-10T02:46:24;100704.19;;;17.14;93.32
4705;BME280;2366;51.332;6.610;2023-05-10T02:48:49;100706.00;;;17.14;92.81
4705;BME280;2366;51.332;6.610;2023-05-10T02:51:16;100704.19;;;17.14;93.41
4705;BME280;2366;51.332;6.610;2023-05-10T02:53:44;100704.31;;;17.13;93.31
4705;BME280;2366;51.332;6.610;2023-05-10T02:56:20;100703.03;;;17.07;93.33
4705;BME280;2366;51.332;6.610;2023-05-10T02:58:48;100701.19;;;17.08;93.21
4705;BME280;2366;51.332;6.610;2023-05-10T03:01:14;100703.03;;;17.07;92.99
4705;BME280;2366;51.332;6.610;2023-05-10T03:03:39;100703.03;;;17.07;93.42
4705;BME280;2366;51.332;6.610;2023-05-10T03:06:05;100701.63;;;17.13;93.49
4705;BME280;2366;51.332;6.610;2023-05-10T03:08:30;100702.34;;;17.15;93.42
4705;BME280;2366;51.332;6.610;2023-05-10T03:14:10;100713.06;;;17.15;93.34
4705;BME280;2366;51.332;6.610;2023-05-10T03:16:45;100712.94;;;17.16;92.92
4705;BME280;2366;51.332;6.610;2023-05-10T03:19:30;100712.03;;;17.06;92.67
4705;BME280;2366;51.332;6.610;2023-05-10T03:21:59;100721.91;;;17.06;93.14
4705;BME280;2366;51.332;6.610;2023-05-10T03:24:28;100722.50;;;17.09;93.77
4705;BME280;2366;51.332;6.610;2023-05-10T03:26:56;100721.09;;;17.15;93.12
4705;BME280;2366;51.332;6.610;2023-05-10T03:29:22;100719.97;;;17.17;93.13
4705;BME280;2366;51.332;6.610;2023-05-10T03:31:50;100725.06;;;17.20;92.69
4705;BME280;2366;51.332;6.610;2023-05-10T03:34:16;100725.06;;;17.20;93.21
4705;BME280;2366;51.332;6.610;2023-05-10T03:36:42;100727.19;;;17.27;93.84
4705;BME280;2366;51.332;6.610;2023-05-10T03:39:07;100722.97;;;17.24;93.11
4705;BME280;2366;51.332;6.610;2023-05-10T03:41:33;100723.09;;;17.22;92.91
4705;BME280;2366;51.332;6.610;2023-05-10T03:43:59;100726.75;;;17.21;92.85
4705;BME280;2366;51.332;6.610;2023-05-10T03:46:24;100727.63;;;17.22;93.73
4705;BME280;2366;51.332;6.610;2023-05-10T03:48:50;100735.06;;;17.18;92.86
4705;BME280;2366;51.332;6.610;2023-05-10T03:51:15;100734.06;;;17.19;93.55
4705;BME280;2366;51.332;6.610;2023-05-10T03:53:40;100738.16;;;17.23;93.34
4705;BME280;2366;51.332;6.610;2023-05-10T03:56:06;100733.53;;;17.25;92.85
4705;BME280;2366;51.332;6.610;2023-05-10T03:58:31;100741.31;;;17.29;93.28
4705;BME280;2366;51.332;6.610;2023-05-10T04:00:56;100737.22;;;17.24;93.04
4705;BME280;2366;51.332;6.610;2023-05-10T04:03:22;100735.25;;;17.27;92.98
4705;BME280;2366;51.332;6.610;2023-05-10T04:05:48;100731.81;;;17.15;92.04
4705;BME280;2366;51.332;6.610;2023-05-10T04:08:13;100738.72;;;17.17;92.89
4705;BME280;2366;51.332;6.610;2023-05-10T04:10:41;100738.16;;;17.23;93.19
4705;BME280;2366;51.332;6.610;2023-05-10T04:13:06;100741.44;;;17.27;93.27
4705;BME280;2366;51.332;6.610;2023-05-10T04:15:32;100747.38;;;17.31;93.51
4705;BME280;2366;51.332;6.610;2023-05-10T04:17:57;100743.41;;;17.25;92.83
4705;BME280;2366;51.332;6.610;2023-05-10T04:20:22;100747.63;;;17.28;93.47
4705;BME280;2366;51.332;6.610;2023-05-10T04:22:48;100742.88;;;17.31;93.46
4705;BME280;2366;51.332;6.610;2023-05-10T04:25:13;100747.38;;;17.31;93.28
4705;BME280;2366;51.332;6.610;2023-05-10T04:27:38;100744.25;;;17.25;92.26
4705;BME280;2366;51.332;6.610;2023-05-10T04:30:04;100747.63;;;17.28;93.38
4705;BME280;2366;51.332;6.610;2023-05-10T04:32:30;100749.59;;;17.25;92.68
4705;BME280;2366;51.332;6.610;2023-05-10T04:34:56;100753.72;;;17.30;92.89
4705;BME280;2366;51.332;6.610;2023-05-10T04:37:21;100752.16;;;17.37;93.91
4705;BME280;2366;51.332;6.610;2023-05-10T04:39:48;100753.44;;;17.33;92.48
4705;BME280;2366;51.332;6.610;2023-05-10T04:42:13;100752.16;;;17.37;93.26
4705;BME280;2366;51.332;6.610;2023-05-10T04:44:40;100751.19;;;17.38;93.31
4705;BME280;2366;51.332;6.610;2023-05-10T04:47:05;100751.19;;;17.38;93.28
4705;BME280;2366;51.332;6.610;2023-05-10T04:49:31;100754.16;;;17.44;93.51
4705;BME280;2366;51.332;6.610;2023-05-10T04:51:56;100757.28;;;17.50;92.98
4705;BME280;2366;51.332;6.610;2023-05-10T04:54:21;100764.06;;;17.54;93.21
4705;BME280;2366;51.332;6.610;2023-05-10T04:56:47;100764.06;;;17.54;92.30
4705;BME280;2366;51.332;6.610;2023-05-10T04:59:12;100765.59;;;17.56;93.06
4705;BME280;2366;51.332;6.610;2023-05-10T05:01:38;100769.28;;;17.65;93.73
4705;BME280;2366;51.332;6.610;2023-05-10T05:04:03;100774.94;;;17.72;93.12
4705;BME280;2366;51.332;6.610;2023-05-10T05:06:29;100772.00;;;17.75;92.98
4705;BME280;2366;51.332;6.610;2023-05-10T05:08:54;100769.91;;;17.78;92.71
4705;BME280;2366;51.332;6.610;2023-05-10T05:11:19;100768.06;;;17.79;93.23
4705;BME280;2366;51.332;6.610;2023-05-10T05:13:46;100768.31;;;17.76;93.10
4705;BME280;2366;51.332;6.610;2023-05-10T05:16:11;100779.03;;;17.76;93.31
4705;BME280;2366;51.332;6.610;2023-05-10T05:18:36;100785.41;;;17.75;93.57
4705;BME280;2366;51.332;6.610;2023-05-10T05:21:02;100785.13;;;17.68;93.32
4705;BME280;2366;51.332;6.610;2023-05-10T05:23:27;100787.78;;;17.68;92.47
4705;BME280;2366;51.332;6.610;2023-05-10T05:25:53;100784.69;;;17.73;93.78
4705;BME280;2366;51.332;6.610;2023-05-10T05:28:20;100788.81;;;17.77;93.54
4705;BME280;2366;51.332;6.610;2023-05-10T05:30:45;100787.25;;;17.74;93.39
4705;BME280;2366;51.332;6.610;2023-05-10T05:33:11;100792.59;;;17.74;93.42
4705;BME280;2366;51.332;6.610;2023-05-10T05:35:36;100787.50;;;17.71;92.44
4705;BME280;2366;51.332;6.610;2023-05-10T05:38:02;100797.38;;;17.71;93.58
4705;BME280;2366;51.332;6.610;2023-05-10T05:40:27;100803.34;;;17.74;93.40
4705;BME280;2366;51.332;6.610;2023-05-10T05:42:52;100796.69;;;17.69;93.34
4705;BME280;2366;51.332;6.610;2023-05-10T05:45:18;100803.00;;;17.58;92.34
4705;BME280;2366;51.332;6.610;2023-05-10T05:47:43;100799.47;;;17.57;91.55
4705;BME280;2366;51.332;6.610;2023-05-10T05:50:09;100805.84;;;17.66;93.17
4705;BME280;2366;51.332;6.610;2023-05-10T05:52:34;100806.97;;;17.63;92.93
4705;BME280;2366;51.332;6.610;2023-05-10T05:55:01;100810.63;;;17.62;92.95
4705;BME280;2366;51.332;6.610;2023-05-10T05:57:26;100814.56;;;17.49;91.51
4705;BME280;2366;51.332;6.610;2023-05-10T05:59:51;100810.44;;;17.44;91.69
4705;BME280;2366;51.332;6.610;2023-05-10T06:02:17;100821.88;;;17.47;93.04
4705;BME280;2366;51.332;6.610;2023-05-10T06:04:42;100818.91;;;17.40;92.28
4705;BME280;2366;51.332;6.610;2023-05-10T06:07:08;100824.50;;;17.37;92.20
4705;BME280;2366;51.332;6.610;2023-05-10T06:09:33;100833.72;;;17.44;92.37
4705;BME280;2366;51.332;6.610;2023-05-10T06:11:58;100826.00;;;17.51;92.07
4705;BME280;2366;51.332;6.610;2023-05-10T06:14:24;100827.00;;;17.59;91.99
4705;BME280;2366;51.332;6.610;2023-05-10T06:16:49;100828.69;;;17.60;91.99
4705;BME280;2366;51.332;6.610;2023-05-10T06:19:15;100838.25;;;17.53;91.16
4705;BME280;2366;51.332;6.610;2023-05-10T06:21:40;100841.97;;;17.72;92.62
4705;BME280;2366;51.332;6.610;2023-05-10T06:24:06;100840.66;;;17.87;93.10
4705;BME280;2366;51.332;6.610;2023-05-10T06:26:33;100838.38;;;17.92;92.80
4705;BME280;2366;51.332;6.610;2023-05-10T06:28:58;100844.16;;;17.97;92.20
4705;BME280;2366;51.332;6.610;2023-05-10T06:31:24;100843.75;;;17.92;91.92
4705;BME280;2366;51.332;6.610;2023-05-10T06:33:49;100844.03;;;17.89;91.62
4705;BME280;2366;51.332;6.610;2023-05-10T06:36:14;100843.19;;;17.98;92.64
4705;BME280;2366;51.332;6.610;2023-05-10T06:38:40;100842.75;;;17.93;92.33
4705;BME280;2366;51.332;6.610;2023-05-10T06:41:05;100851.09;;;17.90;91.73
4705;BME280;2366;51.332;6.610;2023-05-10T06:43:31;100854.44;;;17.82;90.89
4705;BME280;2366;51.332;6.610;2023-05-10T06:45:56;100853.47;;;17.83;91.98
4705;BME280;2366;51.332;6.610;2023-05-10T06:48:22;100850.50;;;17.86;91.75
4705;BME280;2366;51.332;6.610;2023-05-10T06:50:48;100851.84;;;17.71;91.51
4705;BME280;2366;51.332;6.610;2023-05-10T06:53:13;100854.69;;;17.70;92.11
4705;BME280;2366;51.332;6.610;2023-05-10T06:55:39;100857.38;;;17.79;91.93
4705;BME280;2366;51.332;6.610;2023-05-10T06:58:04;100853.06;;;17.88;91.62
4705;BME280;2366;51.332;6.610;2023-05-10T07:00:30;100864.91;;;17.95;92.02
4705;BME280;2366;51.332;6.610;2023-05-10T07:02:55;100869.19;;;18.08;91.70
4705;BME280;2366;51.332;6.610;2023-05-10T07:05:21;100867.63;;;18.15;91.51
4705;BME280;2366;51.332;6.610;2023-05-10T07:07:46;100864.00;;;18.35;91.68
4705;BME280;2366;51.332;6.610;2023-05-10T07:10:11;100866.50;;;18.56;91.15
4705;BME280;2366;51.332;6.610;2023-05-10T07:12:37;100870.34;;;18.83;91.68
4705;BME280;2366;51.332;6.610;2023-05-10T07:15:03;100875.84;;;18.91;90.52
4705;BME280;2366;51.332;6.610;2023-05-10T07:17:29;100876.41;;;18.95;90.35
4705;BME280;2366;51.332;6.610;2023-05-10T07:19:54;100875.44;;;18.86;90.39
4705;BME280;2366;51.332;6.610;2023-05-10T07:22:20;100879.09;;;18.75;89.79
4705;BME280;2366;51.332;6.610;2023-05-10T07:24:45;100873.16;;;18.62;90.21
4705;BME280;2366;51.332;6.610;2023-05-10T07:27:11;100875.72;;;18.83;90.45
4705;BME280;2366;51.332;6.610;2023-05-10T07:29:38;100884.00;;;19.09;90.06
4705;BME280;2366;51.332;6.610;2023-05-10T07:32:04;100878.97;;;19.43;88.95
4705;BME280;2366;51.332;6.610;2023-05-10T07:34:29;100874.34;;;19.63;87.41
4705;BME280;2366;51.332;6.610;2023-05-10T07:36:57;100874.25;;;19.83;89.05
4705;BME280;2366;51.332;6.610;2023-05-10T07:39:23;100880.97;;;19.97;83.74
4705;BME280;2366;51.332;6.610;2023-05-10T07:41:48;100876.41;;;19.97;86.63
4705;BME280;2366;51.332;6.610;2023-05-10T07:44:13;100880.13;;;19.96;86.64
4705;BME280;2366;51.332;6.610;2023-05-10T07:46:39;100875.66;;;19.87;84.29
4705;BME280;2366;51.332;6.610;2023-05-10T07:49:04;100879.22;;;20.05;84.06
4705;BME280;2366;51.332;6.610;2023-05-10T07:51:30;100878.38;;;20.23;84.89
4705;BME280;2366;51.332;6.610;2023-05-10T07:53:55;100887.69;;;20.46;83.88
4705;BME280;2366;51.332;6.610;2023-05-10T07:56:26;100889.56;;;20.64;82.49
4705;BME280;2366;51.332;6.610;2023-05-10T07:58:55;100890.19;;;20.76;80.63
4705;BME280;2366;51.332;6.610;2023-05-10T08:01:21;100889.88;;;20.61;78.91
4705;BME280;2366;51.332;6.610;2023-05-10T08:03:46;100897.53;;;20.56;79.05
4705;BME280;2366;51.332;6.610;2023-05-10T08:06:12;100897.47;;;20.47;78.81
4705;BME280;2366;51.332;6.610;2023-05-10T08:08:38;100888.91;;;20.16;76.53
4705;BME280;2366;51.332;6.610;2023-05-10T08:11:03;100892.28;;;20.00;73.83
4705;BME280;2366;51.332;6.610;2023-05-10T08:13:29;100896.22;;;19.68;73.98
4705;BME280;2366;51.332;6.610;2023-05-10T08:15:54;100900.34;;;19.73;74.80
4705;BME280;2366;51.332;6.610;2023-05-10T08:18:20;100906.34;;;19.57;73.46
4705;BME280;2366;51.332;6.610;2023-05-10T08:20:46;100909.19;;;19.55;73.06
4705;BME280;2366;51.332;6.610;2023-05-10T08:23:14;100906.63;;;19.54;73.19
4705;BME280;2366;51.332;6.610;2023-05-10T08:25:40;100919.66;;;19.58;72.49
4705;BME280;2366;51.332;6.610;2023-05-10T08:28:05;100919.94;;;19.55;72.37
4705;BME280;2366;51.332;6.610;2023-05-10T08:30:30;100915.50;;;19.64;72.83
4705;BME280;2366;51.332;6.610;2023-05-10T08:32:56;100919.50;;;19.69;71.62
4705;BME280;2366;51.332;6.610;2023-05-10T08:35:21;100919.28;;;19.81;72.36
4705;BME280;2366;51.332;6.610;2023-05-10T08:37:47;100925.16;;;19.94;70.72
4705;BME280;2366;51.332;6.610;2023-05-10T08:40:13;100919.84;;;20.30;70.28
4705;BME280;2366;51.332;6.610;2023-05-10T08:42:40;100934.81;;;20.78;68.72
4705;BME280;2366;51.332;6.610;2023-05-10T08:45:09;100933.44;;;20.74;67.71
4705;BME280;2366;51.332;6.610;2023-05-10T08:47:37;100933.06;;;20.69;67.91
4705;BME280;2366;51.332;6.610;2023-05-10T08:50:04;100941.41;;;20.66;67.55
4705;BME280;2366;51.332;6.610;2023-05-10T08:52:30;100939.88;;;20.45;66.50
4705;BME280;2366;51.332;6.610;2023-05-10T08:54:58;100945.97;;;20.65;67.51
4705;BME280;2366;51.332;6.610;2023-05-10T08:57:23;100948.78;;;20.82;67.08
4705;BME280;2366;51.332;6.610;2023-05-10T08:59:49;100951.50;;;21.00;66.31
4705;BME280;2366;51.332;6.610;2023-05-10T09:02:14;100951.72;;;21.06;66.00
4705;BME280;2366;51.332;6.610;2023-05-10T09:04:41;100949.22;;;21.13;64.92
4705;BME280;2366;51.332;6.610;2023-05-10T09:07:07;100956.97;;;20.90;63.21
4705;BME280;2366;51.332;6.610;2023-05-10T09:09:33;100955.91;;;20.65;63.22
4705;BME280;2366;51.332;6.610;2023-05-10T09:11:58;100957.31;;;20.41;64.35
4705;BME280;2366;51.332;6.610;2023-05-10T09:14:25;100962.00;;;20.21;64.48
4705;BME280;2366;51.332;6.610;2023-05-10T09:16:50;100967.78;;;20.17;64.90
4705;BME280;2366;51.332;6.610;2023-05-10T09:19:16;100968.50;;;20.19;64.53
4705;BME280;2366;51.332;6.610;2023-05-10T09:21:41;100961.56;;;20.16;64.73
4705;BME280;2366;51.332;6.610;2023-05-10T09:24:08;100974.78;;;20.37;64.75
4705;BME280;2366;51.332;6.610;2023-05-10T09:26:34;100966.69;;;20.55;63.91
4705;BME280;2366;51.332;6.610;2023-05-10T09:29:01;100975.97;;;20.70;64.00
4705;BME280;2366;51.332;6.610;2023-05-10T09:32:03;100978.53;;;20.72;62.38
4705;BME280;2366;51.332;6.610;2023-05-10T09:34:30;100979.22;;;20.74;62.10
4705;BME280;2366;51.332;6.610;2023-05-10T09:36:58;100983.91;;;21.08;62.13
4705;BME280;2366;51.332;6.610;2023-05-10T09:39:31;100989.56;;;21.23;61.28
4705;BME280;2366;51.332;6.610;2023-05-10T09:41:58;100983.66;;;20.83;59.51
4705;BME280;2366;51.332;6.610;2023-05-10T09:44:25;100988.00;;;20.48;60.29
4705;BME280;2366;51.332;6.610;2023-05-10T09:46:51;100994.59;;;20.36;61.97
4705;BME280;2366;51.332;6.610;2023-05-10T09:49:18;100995.50;;;20.27;62.39
4705;BME280;2366;51.332;6.610;2023-05-10T09:51:44;100992.63;;;20.10;62.76
4705;BME280;2366;51.332;6.610;2023-05-10T09:56:38;100993.97;;;19.97;62.64
4705;BME280;2366;51.332;6.610;2023-05-10T09:59:06;100993.22;;;20.04;62.88
4705;BME280;2366;51.332;6.610;2023-05-10T10:01:32;100989.31;;;20.17;61.80
4705;BME280;2366;51.332;6.610;2023-05-10T10:03:58;100987.06;;;20.40;62.38
4705;BME280;2366;51.332;6.610;2023-05-10T10:06:24;100983.69;;;20.65;61.94
4705;BME280;2366;51.332;6.610;2023-05-10T10:08:50;100987.19;;;20.84;60.84
4705;BME280;2366;51.332;6.610;2023-05-10T10:11:16;100991.28;;;20.88;61.18
4705;BME280;2366;51.332;6.610;2023-05-10T10:13:41;100992.59;;;21.02;61.30
4705;BME280;2366;51.332;6.610;2023-05-10T10:16:08;100995.34;;;21.28;60.22
4705;BME280;2366;51.332;6.610;2023-05-10T10:18:35;100991.09;;;21.43;59.49
4705;BME280;2366;51.332;6.610;2023-05-10T10:21:05;100995.75;;;21.59;58.80
4705;BME280;2366;51.332;6.610;2023-05-10T10:23:31;101002.16;;;21.58;58.84
4705;BME280;2366;51.332;6.610;2023-05-10T10:25:56;100998.34;;;21.43;57.95
4705;BME280;2366;51.332;6.610;2023-05-10T10:33:59;101004.69;;;20.98;60.16
4705;BME280;2366;51.332;6.610;2023-05-10T10:36:27;101008.63;;;20.85;60.40
4705;BME280;2366;51.332;6.610;2023-05-10T10:39:00;100997.75;;;20.77;60.09
4705;BME280;2366;51.332;6.610;2023-05-10T10:41:39;101000.06;;;20.72;59.89
4705;BME280;2366;51.332;6.610;2023-05-10T10:44:26;101010.25;;;20.78;60.23
4705;BME280;2366;51.332;6.610;2023-05-10T10:47:28;100999.84;;;20.83;59.62
4705;BME280;2366;51.332;6.610;2023-05-10T10:50:06;101004.69;;;20.98;59.11
4705;BME280;2366;51.332;6.610;2023-05-10T10:52:39;101006.81;;;21.12;60.19
4705;BME280;2366;51.332;6.610;2023-05-10T10:57:51;101001.59;;;21.81;58.64
4705;BME280;2366;51.332;6.610;2023-05-10T11:00:31;101009.16;;;22.11;56.88
4705;BME280;2366;51.332;6.610;2023-05-10T11:03:08;101006.19;;;22.23;57.27
4705;BME280;2366;51.332;6.610;2023-05-10T11:05:40;101014.94;;;22.17;57.24
4705;BME280;2366;51.332;6.610;2023-05-10T11:08:27;101014.59;;;21.85;57.03
4705;BME280;2366;51.332;6.610;2023-05-10T11:11:05;101028.19;;;21.31;57.36
4705;BME280;2366;51.332;6.610;2023-05-10T11:13:42;101023.16;;;20.92;56.97
4705;BME280;2366;51.332;6.610;2023-05-10T11:16:24;101025.63;;;20.68;58.35
4705;BME280;2366;51.332;6.610;2023-05-10T11:18:58;101022.31;;;20.46;59.17
4705;BME280;2366;51.332;6.610;2023-05-10T11:22:12;101025.63;;;20.68;59.47
4705;BME280;2366;51.332;6.610;2023-05-10T11:24:56;101033.09;;;20.92;58.25
4705;BME280;2366;51.332;6.610;2023-05-10T11:27:21;101036.09;;;21.07;57.96
4705;BME280;2366;51.332;6.610;2023-05-10T11:29:51;101032.22;;;21.27;57.91
4705;BME280;2366;51.332;6.610;2023-05-10T11:32:16;101038.31;;;21.47;57.18
4705;BME280;2366;51.332;6.610;2023-05-10T11:34:47;101030.84;;;21.41;57.27
4705;BME280;2366;51.332;6.610;2023-05-10T11:37:13;101036.00;;;21.34;57.24
4705;BME280;2366;51.332;6.610;2023-05-10T11:39:38;101043.03;;;21.45;57.43
4705;BME280;2366;51.332;6.610;2023-05-10T11:42:04;101033.31;;;21.34;57.49
4705;BME280;2366;51.332;6.610;2023-05-10T11:44:32;101038.81;;;21.51;57.37
4705;BME280;2366;51.332;6.610;2023-05-10T11:46:59;101041.59;;;21.59;57.16
4705;BME280;2366;51.332;6.610;2023-05-10T11:49:25;101043.03;;;21.71;56.21
4705;BME280;2366;51.332;6.610;2023-05-10T11:51:51;101046.84;;;21.87;56.52
4705;BME280;2366;51.332;6.610;2023-05-10T11:54:16;101046.47;;;22.16;55.94
4705;BME280;2366;51.332;6.610;2023-05-10T11:56:41;101044.00;;;22.23;55.75
4705;BME280;2366;51.332;6.610;2023-05-10T11:59:07;101041.88;;;22.34;55.84
4705;BME280;2366;51.332;6.610;2023-05-10T12:01:33;101042.44;;;22.54;55.71
4705;BME280;2366;51.332;6.610;2023-05-10T12:04:00;101036.19;;;22.54;55.66
4705;BME280;2366;51.332;6.610;2023-05-10T12:06:30;101042.78;;;22.51;54.56
4705;BME280;2366;51.332;6.610;2023-05-10T12:08:57;101041.81;;;22.26;54.64
4705;BME280;2366;51.332;6.610;2023-05-10T12:11:28;101037.53;;;22.50;54.25
4705;BME280;2366;51.332;6.610;2023-05-10T12:13:54;101040.28;;;22.66;54.31
4705;BME280;2366;51.332;6.610;2023-05-10T12:16:24;101031.41;;;23.15;53.62
4705;BME280;2366;51.332;6.610;2023-05-10T12:18:54;101036.63;;;23.41;52.01
4705;BME280;2366;51.332;6.610;2023-05-10T12:21:21;101027.28;;;23.93;50.44
4705;BME280;2366;51.332;6.610;2023-05-10T12:23:52;101039.75;;;24.42;50.26
4705;BME280;2366;51.332;6.610;2023-05-10T12:26:21;101028.25;;;24.79;48.25
4705;BME280;2366;51.332;6.610;2023-05-10T12:28:47;101032.81;;;25.01;47.96
4705;BME280;2366;51.332;6.610;2023-05-10T12:31:12;101031.81;;;25.26;47.44
4705;BME280;2366;51.332;6.610;2023-05-10T12:33:39;101024.66;;;25.48;45.54
4705;BME280;2366;51.332;6.610;2023-05-10T12:36:08;101027.16;;;25.34;46.21
4705;BME280;2366;51.332;6.610;2023-05-10T12:38:36;101029.25;;;25.24;46.65
4705;BME280;2366;51.332;6.610;2023-05-10T12:41:07;101036.13;;;25.12;45.69
4705;BME280;2366;51.332;6.610;2023-05-10T12:43:34;101026.72;;;24.99;46.61
4705;BME280;2366;51.332;6.610;2023-05-10T12:46:16;101027.63;;;24.69;47.31
4705;BME280;2366;51.332;6.610;2023-05-10T12:48:43;101031.47;;;24.51;47.08
4705;BME280;2366;51.332;6.610;2023-05-10T12:51:09;101033.63;;;24.16;47.03
4705;BME280;2366;51.332;6.610;2023-05-10T12:53:37;101029.47;;;24.37;47.15
4705;BME280;2366;51.332;6.610;2023-05-10T12:56:03;101027.00;;;24.58;47.36
4705;BME280;2366;51.332;6.610;2023-05-10T12:58:28;101031.91;;;24.86;46.89
4705;BME280;2366;51.332;6.610;2023-05-10T13:00:54;101032.28;;;25.06;46.38
4705;BME280;2366;51.332;6.610;2023-05-10T13:03:21;101032.09;;;25.08;46.55
4705;BME280;2366;51.332;6.610;2023-05-10T13:05:46;101044.03;;;24.98;46.51
4705;BME280;2366;51.332;6.610;2023-05-10T13:08:12;101044.03;;;24.98;46.89
4705;BME280;2366;51.332;6.610;2023-05-10T13:10:37;101043.72;;;24.93;45.11
4705;BME280;2366;51.332;6.610;2023-05-10T13:13:03;101047.31;;;24.63;45.37
4705;BME280;2366;51.332;6.610;2023-05-10T13:15:28;101060.28;;;24.75;46.47
4705;BME280;2366;51.332;6.610;2023-05-10T13:17:54;101047.66;;;25.14;45.04
4705;BME280;2366;51.332;6.610;2023-05-10T13:20:19;101049.28;;;25.23;45.05
4705;BME280;2366;51.332;6.610;2023-05-10T13:22:45;101051.28;;;25.29;44.93
4705;BME280;2366;51.332;6.610;2023-05-10T13:25:11;101056.03;;;25.27;45.73
4705;BME280;2366;51.332;6.610;2023-05-10T13:27:40;101043.06;;;25.14;45.13
4705;BME280;2366;51.332;6.610;2023-05-10T13:30:07;101047.72;;;24.74;45.21
4705;BME280;2366;51.332;6.610;2023-05-10T13:32:33;101057.06;;;24.72;46.39
4705;BME280;2366;51.332;6.610;2023-05-10T13:34:58;101049.97;;;24.71;47.12